Time;durP1;ratioP1;P1;durP2;ratioP2;P2;SDS_P1;SDS_P2;PMS_P1;PMS_P2;Temp;Humidity;BMP_temperature;BMP_pressure;BME280_temperature;BME280_humidity;BME280_pressure;Samples;Min_cycle;Max_cycle;Signal;HPM_P1;HPM_P2
2021/12/10 00:01:31;;;;;;;39.33;5.93;;;;;;;;;;5094360;28;20071;-63
2021/12/10 00:03:58;;;;;;;30.25;4.47;;;;;;;;;;5094589;28;20067;-63
2021/12/10 00:06:35;;;;;;;13.90;3.45;;;;;;;;;;5094519;28;20028;-63
2021/12/10 00:09:05;;;;;;;15.07;3.08;;;;;;;;;;5094478;28;20488;-63
2021/12/10 00:11:51;;;;;;;16.20;2.15;;;;;;;;;;5081113;28;20024;-63
2021/12/10 00:14:18;;;;;;;18.50;2.42;;;;;;;;;;5073911;28;20024;-63
2021/12/10 00:16:44;;;;;;;18.00;2.92;;;;;;;;;;5080426;28;20480;-63
2021/12/10 00:21:38;;;;;;;20.85;3.80;;;;;;;;;;5094376;28;20364;-63
2021/12/10 00:24:05;;;;;;;20.42;4.03;;;;;;;;;;5079949;28;20024;-63
2021/12/10 00:26:31;;;;;;;19.33;3.40;;;;;;;;;;5074679;28;20029;-63
2021/12/10 00:29:02;;;;;;;28.52;5.03;;;;;;;;;;5090292;28;20373;-63
2021/12/10 00:31:44;;;;;;;24.00;3.35;;;;;;;;;;5093815;28;20027;-63
2021/12/10 00:34:12;;;;;;;21.88;3.80;;;;;;;;;;5093948;28;20038;-63
2021/12/10 00:36:39;;;;;;;24.75;3.80;;;;;;;;;;5093675;28;20499;-63
2021/12/10 00:39:09;;;;;;;22.17;4.63;;;;;;;;;;5093364;28;20553;-63
2021/12/10 00:41:35;;;;;;;30.20;4.45;;;;;;;;;;5084066;28;20085;-63
2021/12/10 00:44:02;;;;;;;26.40;4.38;;;;;;;;;;5075087;28;20139;-63
2021/12/10 00:46:28;;;;;;;19.08;3.20;;;;;;;;;;5093460;28;20081;-63
2021/12/10 00:48:54;;;;;;;29.95;5.03;;;;;;;;;;5093729;28;20032;-63
2021/12/10 00:51:20;;;;;;;31.60;5.75;;;;;;;;;;5092931;28;20070;-63
2021/12/10 00:53:47;;;;;;;23.38;4.18;;;;;;;;;;5073078;28;20085;-63
2021/12/10 00:56:14;;;;;;;28.38;4.95;;;;;;;;;;5073264;28;20099;-63
2021/12/10 00:58:40;;;;;;;25.05;4.03;;;;;;;;;;5073223;28;20033;-63
2021/12/10 01:01:12;;;;;;;25.33;3.65;;;;;;;;;;5078310;28;20039;-63
2021/12/10 01:03:52;;;;;;;28.08;3.28;;;;;;;;;;5093603;28;20058;-63
2021/12/10 01:06:19;;;;;;;28.50;4.18;;;;;;;;;;5093319;28;20043;-63
2021/12/10 01:08:48;;;;;;;24.02;3.83;;;;;;;;;;5092982;28;20040;-63
2021/12/10 01:11:16;;;;;;;33.88;4.45;;;;;;;;;;5093290;28;20031;-63
2021/12/10 01:13:45;;;;;;;32.03;5.07;;;;;;;;;;5092872;28;20024;-62
2021/12/10 01:27:34;;;;;;;23.88;3.70;;;;;;;;;;5014665;28;20033;-63
2021/12/10 01:30:20;;;;;;;15.40;2.60;;;;;;;;;;5010811;28;20391;-63
2021/12/10 01:35:29;;;;;;;14.88;2.33;;;;;;;;;;5175293;22;20310;-61
2021/12/10 01:37:56;;;;;;;15.48;2.28;;;;;;;;;;5005771;28;20070;-62
2021/12/10 01:40:25;;;;;;;18.17;2.65;;;;;;;;;;4993500;28;20030;-62
2021/12/10 01:42:55;;;;;;;15.43;2.70;;;;;;;;;;5005482;28;20519;-61
2021/12/10 01:45:24;;;;;;;27.27;3.53;;;;;;;;;;5012971;28;20022;-62
2021/12/10 01:47:56;;;;;;;22.88;3.03;;;;;;;;;;5012909;28;20026;-62
2021/12/10 01:50:23;;;;;;;21.20;3.58;;;;;;;;;;5007508;28;21546;-62
2021/12/10 01:52:51;;;;;;;25.15;3.92;;;;;;;;;;4993470;28;20041;-62
2021/12/10 01:55:20;;;;;;;27.58;3.60;;;;;;;;;;4993318;28;20026;-62
2021/12/10 01:57:46;;;;;;;30.17;3.85;;;;;;;;;;4993821;28;20042;-62
2021/12/10 02:00:13;;;;;;;25.95;4.65;;;;;;;;;;4993626;28;20030;-62
2021/12/10 02:02:42;;;;;;;15.77;2.53;;;;;;;;;;4993836;28;20030;-62
2021/12/10 02:05:09;;;;;;;29.23;3.30;;;;;;;;;;4993150;28;20044;-62
2021/12/10 02:07:35;;;;;;;21.27;4.10;;;;;;;;;;4999226;28;20377;-62
2021/12/10 02:10:01;;;;;;;13.77;4.05;;;;;;;;;;5013233;28;20044;-62
2021/12/10 02:12:28;;;;;;;12.93;2.55;;;;;;;;;;5009408;28;20106;-61
2021/12/10 02:15:02;;;;;;;30.95;4.78;;;;;;;;;;4993588;28;20506;-61
2021/12/10 02:17:31;;;;;;;29.52;3.95;;;;;;;;;;4993685;28;20035;-62
2021/12/10 02:20:01;;;;;;;22.58;3.95;;;;;;;;;;4993688;28;20041;-62
2021/12/10 02:22:27;;;;;;;14.57;2.85;;;;;;;;;;4993528;28;20100;-62
2021/12/10 02:24:53;;;;;;;9.95;2.13;;;;;;;;;;4993252;28;20057;-61
2021/12/10 02:27:19;;;;;;;10.07;2.10;;;;;;;;;;4992820;28;20034;-62
2021/12/10 02:29:45;;;;;;;11.30;2.42;;;;;;;;;;4993727;28;20027;-62
2021/12/10 02:32:11;;;;;;;17.80;2.53;;;;;;;;;;4993237;28;20023;-61
2021/12/10 02:34:38;;;;;;;17.55;3.28;;;;;;;;;;4992809;28;20054;-61
2021/12/10 02:37:05;;;;;;;20.20;3.22;;;;;;;;;;4993371;28;20069;-61
2021/12/10 02:39:31;;;;;;;18.45;3.30;;;;;;;;;;4993159;28;20029;-62
2021/12/10 02:41:57;;;;;;;21.92;7.28;;;;;;;;;;4993228;28;20026;-62
2021/12/10 02:44:27;;;;;;;23.63;3.90;;;;;;;;;;4993243;28;20069;-62
2021/12/10 02:46:53;;;;;;;19.33;2.75;;;;;;;;;;4992876;28;20038;-61
2021/12/10 02:49:20;;;;;;;21.80;3.65;;;;;;;;;;4993190;28;20038;-61
2021/12/10 02:51:46;;;;;;;20.10;2.75;;;;;;;;;;4993284;28;20026;-62
2021/12/10 02:54:16;;;;;;;22.33;3.25;;;;;;;;;;4994414;28;20034;-62
2021/12/10 02:56:42;;;;;;;17.92;3.00;;;;;;;;;;4996785;28;20045;-62
2021/12/10 02:59:08;;;;;;;27.00;3.45;;;;;;;;;;4996513;28;20418;-62
2021/12/10 03:01:37;;;;;;;21.95;3.28;;;;;;;;;;4996233;28;20042;-62
2021/12/10 03:04:04;;;;;;;30.70;3.83;;;;;;;;;;4977228;28;20030;-62
2021/12/10 03:06:31;;;;;;;23.35;4.15;;;;;;;;;;4977270;28;20030;-62
2021/12/10 03:08:57;;;;;;;19.20;3.95;;;;;;;;;;4977174;28;20485;-62
2021/12/10 03:11:26;;;;;;;22.48;3.47;;;;;;;;;;5014960;28;20046;-62
2021/12/10 03:13:53;;;;;;;20.77;3.20;;;;;;;;;;5010743;28;20018;-62
2021/12/10 03:16:19;;;;;;;17.50;3.30;;;;;;;;;;5011309;28;20429;-61
2021/12/10 03:18:46;;;;;;;14.55;2.05;;;;;;;;;;4996586;28;20036;-62
2021/12/10 03:21:12;;;;;;;18.38;3.20;;;;;;;;;;4996248;28;20038;-62
2021/12/10 03:23:42;;;;;;;23.98;3.22;;;;;;;;;;4996544;28;20417;-62
2021/12/10 03:26:12;;;;;;;12.65;2.45;;;;;;;;;;4996109;28;20477;-61
2021/12/10 03:28:40;;;;;;;11.00;2.15;;;;;;;;;;4995943;28;20116;-61
2021/12/10 03:31:06;;;;;;;15.65;2.70;;;;;;;;;;4995260;28;20022;-61
2021/12/10 03:33:33;;;;;;;19.92;3.35;;;;;;;;;;4996147;28;20080;-61
2021/12/10 03:35:59;;;;;;;22.15;3.05;;;;;;;;;;5002761;28;20477;-62
2021/12/10 03:38:26;;;;;;;26.67;4.18;;;;;;;;;;5015501;28;20413;-62
2021/12/10 03:40:53;;;;;;;21.75;3.10;;;;;;;;;;5015698;28;20049;-62
2021/12/10 03:43:20;;;;;;;21.20;2.72;;;;;;;;;;5015430;28;20034;-61
2021/12/10 03:45:49;;;;;;;22.92;4.03;;;;;;;;;;5015347;28;20073;-61
2021/12/10 03:48:18;;;;;;;25.50;2.63;;;;;;;;;;5015576;28;20073;-61
2021/12/10 03:50:45;;;;;;;24.20;6.93;;;;;;;;;;4997708;28;20080;-61
2021/12/10 03:53:12;;;;;;;29.33;3.65;;;;;;;;;;4995777;28;20114;-61
2021/12/10 03:55:38;;;;;;;25.05;3.67;;;;;;;;;;4992479;28;20095;-61
2021/12/10 03:58:04;;;;;;;14.48;2.60;;;;;;;;;;4994258;28;20520;-61
2021/12/10 04:00:32;;;;;;;27.00;3.38;;;;;;;;;;4993940;28;20057;-61
2021/12/10 04:02:59;;;;;;;17.20;3.88;;;;;;;;;;4994270;28;20113;-61
2021/12/10 04:05:26;;;;;;;10.95;2.25;;;;;;;;;;4992791;28;20042;-61
2021/12/10 04:07:54;;;;;;;10.23;1.88;;;;;;;;;;4993558;28;20030;-61
2021/12/10 04:10:21;;;;;;;11.65;2.13;;;;;;;;;;4994256;28;20032;-62
2021/12/10 04:12:47;;;;;;;13.43;3.65;;;;;;;;;;4990214;28;20026;-62
2021/12/10 04:15:17;;;;;;;10.88;1.52;;;;;;;;;;4993338;28;20026;-62
2021/12/10 04:17:43;;;;;;;6.70;1.88;;;;;;;;;;4992493;28;20057;-62
2021/12/10 04:20:09;;;;;;;21.60;2.90;;;;;;;;;;4992950;28;20092;-62
2021/12/10 04:22:36;;;;;;;17.50;3.30;;;;;;;;;;4993384;28;20514;-62
2021/12/10 04:25:04;;;;;;;25.35;3.10;;;;;;;;;;4993106;28;20026;-62
2021/12/10 04:27:31;;;;;;;18.67;3.05;;;;;;;;;;4992846;28;20030;-62
2021/12/10 04:29:58;;;;;;;17.17;2.63;;;;;;;;;;4992865;28;20030;-62
2021/12/10 04:32:26;;;;;;;21.98;3.05;;;;;;;;;;4989630;28;20030;-62
2021/12/10 04:34:52;;;;;;;22.38;3.33;;;;;;;;;;4992831;28;20053;-62
2021/12/10 04:37:19;;;;;;;22.10;4.38;;;;;;;;;;4992870;28;20030;-62
2021/12/10 04:39:47;;;;;;;22.90;4.22;;;;;;;;;;4992932;28;20088;-62
2021/12/10 04:42:15;;;;;;;47.28;4.35;;;;;;;;;;4991776;28;20066;-62
2021/12/10 04:44:41;;;;;;;24.15;3.25;;;;;;;;;;4992388;28;20497;-62
2021/12/10 04:47:07;;;;;;;25.75;5.50;;;;;;;;;;4993581;28;20061;-62
2021/12/10 04:49:34;;;;;;;26.52;3.58;;;;;;;;;;4994037;28;20035;-63
2021/12/10 04:52:00;;;;;;;26.85;4.97;;;;;;;;;;4993994;28;20390;-62
2021/12/10 04:54:27;;;;;;;25.70;3.47;;;;;;;;;;4993810;28;20379;-62
2021/12/10 04:56:54;;;;;;;15.45;2.75;;;;;;;;;;4994200;28;20026;-62
2021/12/10 04:59:22;;;;;;;18.83;2.88;;;;;;;;;;4992595;28;20033;-65
2021/12/10 05:01:49;;;;;;;16.85;2.50;;;;;;;;;;4992691;28;20410;-65
2021/12/10 05:04:15;;;;;;;25.65;4.88;;;;;;;;;;4993725;28;20026;-65
2021/12/10 05:06:42;;;;;;;34.88;4.93;;;;;;;;;;4992608;28;20038;-66
2021/12/10 05:09:10;;;;;;;24.20;3.47;;;;;;;;;;4994397;28;20030;-66
2021/12/10 05:11:36;;;;;;;17.55;3.00;;;;;;;;;;4993732;28;20463;-66
2021/12/10 05:14:03;;;;;;;16.55;3.92;;;;;;;;;;4993858;28;20022;-66
2021/12/10 05:16:29;;;;;;;30.55;3.95;;;;;;;;;;4992303;28;20061;-66
2021/12/10 05:18:59;;;;;;;28.25;3.95;;;;;;;;;;4992892;28;20026;-66
2021/12/10 05:21:27;;;;;;;21.45;3.25;;;;;;;;;;4993316;28;20034;-66
2021/12/10 05:23:54;;;;;;;33.45;4.57;;;;;;;;;;4993465;28;20030;-66
2021/12/10 05:26:20;;;;;;;19.55;2.95;;;;;;;;;;4993333;28;20026;-63
2021/12/10 05:28:46;;;;;;;18.52;3.15;;;;;;;;;;4993185;28;20080;-63
2021/12/10 05:31:13;;;;;;;26.70;3.63;;;;;;;;;;4993273;28;20034;-63
2021/12/10 05:33:39;;;;;;;22.02;2.95;;;;;;;;;;4993183;28;20050;-64
2021/12/10 05:36:05;;;;;;;16.23;2.10;;;;;;;;;;4993008;28;20133;-64
2021/12/10 05:38:32;;;;;;;14.20;2.10;;;;;;;;;;4993307;28;20036;-63
2021/12/10 05:40:59;;;;;;;13.10;2.20;;;;;;;;;;4992823;28;20477;-63
2021/12/10 05:43:25;;;;;;;16.30;2.35;;;;;;;;;;4993709;28;20064;-63
2021/12/10 05:45:51;;;;;;;19.67;2.30;;;;;;;;;;4992976;28;20065;-64
2021/12/10 05:48:18;;;;;;;12.90;2.53;;;;;;;;;;4993380;28;20030;-64
2021/12/10 05:50:44;;;;;;;12.13;1.95;;;;;;;;;;4992771;28;20069;-63
2021/12/10 05:53:11;;;;;;;18.13;2.42;;;;;;;;;;4993109;28;20142;-63
2021/12/10 05:55:39;;;;;;;14.32;2.58;;;;;;;;;;4992782;28;20031;-63
2021/12/10 05:58:05;;;;;;;22.45;3.45;;;;;;;;;;4993191;28;20405;-63
2021/12/10 06:00:34;;;;;;;11.05;2.03;;;;;;;;;;4992736;28;20065;-63
2021/12/10 06:03:00;;;;;;;6.95;1.70;;;;;;;;;;4993125;28;20030;-63
2021/12/10 06:05:27;;;;;;;18.83;4.97;;;;;;;;;;4992892;28;20030;-63
2021/12/10 06:07:53;;;;;;;9.80;1.48;;;;;;;;;;4991475;28;20033;-63
2021/12/10 06:10:20;;;;;;;16.20;1.75;;;;;;;;;;4991671;28;20363;-63
2021/12/10 06:12:47;;;;;;;9.85;1.70;;;;;;;;;;4992517;28;20482;-63
2021/12/10 06:15:14;;;;;;;16.63;2.88;;;;;;;;;;4992290;28;20026;-63
2021/12/10 06:17:41;;;;;;;17.45;2.55;;;;;;;;;;4985472;28;20039;-63
2021/12/10 06:20:08;;;;;;;6.80;2.08;;;;;;;;;;4990267;28;20397;-63
2021/12/10 06:22:34;;;;;;;13.00;2.13;;;;;;;;;;4989046;28;20088;-65
2021/12/10 06:25:00;;;;;;;16.48;2.25;;;;;;;;;;4988639;28;20026;-65
2021/12/10 06:27:27;;;;;;;18.95;2.80;;;;;;;;;;4988843;28;20026;-65
2021/12/10 06:29:53;;;;;;;15.27;2.63;;;;;;;;;;5000880;28;20089;-65
2021/12/10 06:32:19;;;;;;;26.88;3.65;;;;;;;;;;4996880;28;20073;-65
2021/12/10 06:34:46;;;;;;;13.90;3.35;;;;;;;;;;4993582;28;20434;-65
2021/12/10 06:37:12;;;;;;;27.20;3.60;;;;;;;;;;4995424;28;20031;-65
2021/12/10 06:39:38;;;;;;;22.42;3.22;;;;;;;;;;4994888;28;20054;-65
2021/12/10 06:42:04;;;;;;;9.75;2.28;;;;;;;;;;4996073;28;20497;-64
2021/12/10 06:44:31;;;;;;;9.98;1.65;;;;;;;;;;4996921;28;20133;-66
2021/12/10 06:46:57;;;;;;;19.35;2.88;;;;;;;;;;4994339;28;20037;-65
2021/12/10 06:49:23;;;;;;;9.43;2.03;;;;;;;;;;4995615;28;20041;-65
2021/12/10 06:51:49;;;;;;;11.15;3.72;;;;;;;;;;4995827;28;20058;-65
2021/12/10 06:54:15;;;;;;;14.63;2.20;;;;;;;;;;4994760;28;20026;-65
2021/12/10 06:56:42;;;;;;;11.93;1.83;;;;;;;;;;4994987;28;20026;-65
2021/12/10 06:59:09;;;;;;;17.75;2.28;;;;;;;;;;4994110;28;20486;-65
2021/12/10 07:01:38;;;;;;;17.25;2.45;;;;;;;;;;4995602;28;20026;-65
2021/12/10 07:04:06;;;;;;;26.27;3.20;;;;;;;;;;4996442;28;20575;-65
2021/12/10 07:06:32;;;;;;;10.88;2.40;;;;;;;;;;5015718;28;20037;-65
2021/12/10 07:08:59;;;;;;;21.42;3.70;;;;;;;;;;5014037;28;20061;-65
2021/12/10 07:11:26;;;;;;;17.10;3.00;;;;;;;;;;5014412;28;20514;-65
2021/12/10 07:13:54;;;;;;;19.58;3.80;;;;;;;;;;5014809;28;20021;-65
2021/12/10 07:16:22;;;;;;;21.65;3.90;;;;;;;;;;5014493;28;20056;-65
2021/12/10 07:18:48;;;;;;;32.83;4.93;;;;;;;;;;4995477;28;20504;-65
2021/12/10 07:21:14;;;;;;;25.95;4.72;;;;;;;;;;4995539;28;20101;-65
2021/12/10 07:23:42;;;;;;;25.55;4.60;;;;;;;;;;4995219;28;20034;-65
2021/12/10 07:26:08;;;;;;;22.75;3.45;;;;;;;;;;4994995;28;20026;-65
2021/12/10 07:28:34;;;;;;;17.23;2.92;;;;;;;;;;4998046;28;20397;-65
2021/12/10 07:31:01;;;;;;;14.50;2.75;;;;;;;;;;4986391;28;20027;-65
2021/12/10 07:33:27;;;;;;;22.00;2.55;;;;;;;;;;4992086;28;20049;-65
2021/12/10 07:35:53;;;;;;;16.85;2.60;;;;;;;;;;4993566;28;20054;-65
2021/12/10 07:38:20;;;;;;;16.67;3.70;;;;;;;;;;4994492;28;20038;-65
2021/12/10 07:40:47;;;;;;;20.70;3.95;;;;;;;;;;4993032;28;20057;-65
2021/12/10 07:43:14;;;;;;;14.90;2.58;;;;;;;;;;4994588;28;20031;-65
2021/12/10 07:45:43;;;;;;;21.77;2.78;;;;;;;;;;4994619;28;20026;-65
2021/12/10 07:48:11;;;;;;;15.50;2.88;;;;;;;;;;4993437;28;20070;-65
2021/12/10 07:50:41;;;;;;;13.70;1.90;;;;;;;;;;4994387;28;20022;-64
2021/12/10 07:53:07;;;;;;;9.43;2.40;;;;;;;;;;4993847;28;20399;-65
2021/12/10 07:55:34;;;;;;;17.02;3.05;;;;;;;;;;4994479;28;20054;-65
2021/12/10 07:58:01;;;;;;;8.25;2.88;;;;;;;;;;4993834;28;20030;-65
2021/12/10 08:00:33;;;;;;;14.70;2.42;;;;;;;;;;4987970;28;20023;-65
2021/12/10 08:02:59;;;;;;;21.85;3.25;;;;;;;;;;4992985;28;20029;-65
2021/12/10 08:05:26;;;;;;;19.17;3.17;;;;;;;;;;4991298;28;20037;-65
2021/12/10 08:07:53;;;;;;;12.95;2.72;;;;;;;;;;5007525;28;20035;-65
2021/12/10 08:10:19;;;;;;;23.15;3.03;;;;;;;;;;4993897;28;20029;-65
2021/12/10 08:12:45;;;;;;;22.92;3.45;;;;;;;;;;4993288;28;20015;-65
2021/12/10 08:15:12;;;;;;;16.85;3.42;;;;;;;;;;4993757;28;20113;-65
2021/12/10 08:17:39;;;;;;;19.55;3.28;;;;;;;;;;4992706;28;20038;-65
2021/12/10 08:20:06;;;;;;;26.10;3.42;;;;;;;;;;4993482;28;20057;-65
2021/12/10 08:22:32;;;;;;;16.67;4.28;;;;;;;;;;4992975;28;20034;-65
2021/12/10 08:24:59;;;;;;;13.07;2.38;;;;;;;;;;4994544;28;20097;-65
2021/12/10 08:27:25;;;;;;;14.27;2.47;;;;;;;;;;4993980;28;20041;-65
2021/12/10 08:29:51;;;;;;;9.77;2.28;;;;;;;;;;4992558;28;20023;-65
2021/12/10 08:32:20;;;;;;;18.40;2.60;;;;;;;;;;4993567;28;20019;-65
2021/12/10 08:34:50;;;;;;;15.02;2.40;;;;;;;;;;4992877;28;20141;-65
2021/12/10 08:37:17;;;;;;;14.13;2.55;;;;;;;;;;4992639;28;20054;-65
2021/12/10 08:39:44;;;;;;;15.60;4.28;;;;;;;;;;4992577;28;20524;-66
2021/12/10 08:42:12;;;;;;;18.83;2.72;;;;;;;;;;4993377;28;20030;-66
2021/12/10 08:44:38;;;;;;;9.70;2.08;;;;;;;;;;4992941;28;20054;-66
2021/12/10 08:47:04;;;;;;;14.70;2.65;;;;;;;;;;4991894;28;20391;-66
2021/12/10 08:49:31;;;;;;;17.40;2.65;;;;;;;;;;4993061;28;20528;-66
2021/12/10 08:51:57;;;;;;;16.27;2.47;;;;;;;;;;4992890;28;20482;-66
2021/12/10 08:54:28;;;;;;;13.93;2.40;;;;;;;;;;4993564;28;20015;-66
2021/12/10 08:56:54;;;;;;;17.95;3.03;;;;;;;;;;4991844;28;20084;-66
2021/12/10 08:59:23;;;;;;;17.45;2.20;;;;;;;;;;4996405;28;20026;-66
2021/12/10 09:01:50;;;;;;;18.75;2.53;;;;;;;;;;4992484;28;20041;-65
2021/12/10 09:04:17;;;;;;;13.55;2.78;;;;;;;;;;4992603;28;20030;-65
2021/12/10 09:06:45;;;;;;;14.20;2.83;;;;;;;;;;4993024;28;20042;-65
2021/12/10 09:09:12;;;;;;;16.73;2.55;;;;;;;;;;4990258;28;20026;-66
2021/12/10 09:11:40;;;;;;;17.67;2.28;;;;;;;;;;4991447;28;20026;-66
2021/12/10 09:14:08;;;;;;;10.20;3.05;;;;;;;;;;4992654;28;20022;-66
2021/12/10 09:16:36;;;;;;;15.40;3.85;;;;;;;;;;4987776;28;20089;-66
2021/12/10 09:19:04;;;;;;;9.82;1.85;;;;;;;;;;4988219;28;20034;-66
2021/12/10 09:21:32;;;;;;;12.52;2.00;;;;;;;;;;4986301;28;20078;-65
2021/12/10 09:24:04;;;;;;;12.93;2.95;;;;;;;;;;4990650;28;20049;-65
2021/12/10 09:26:30;;;;;;;9.40;1.60;;;;;;;;;;4990694;28;20026;-65
2021/12/10 09:28:57;;;;;;;15.60;2.10;;;;;;;;;;4991349;28;20137;-65
2021/12/10 09:31:24;;;;;;;8.45;2.13;;;;;;;;;;4990359;28;20498;-66
2021/12/10 09:33:52;;;;;;;8.88;1.90;;;;;;;;;;4990224;28;20402;-65
2021/12/10 09:36:19;;;;;;;11.18;2.10;;;;;;;;;;4989487;28;20027;-65
2021/12/10 09:38:45;;;;;;;24.88;3.00;;;;;;;;;;4990925;28;20089;-65
2021/12/10 09:41:12;;;;;;;12.00;2.42;;;;;;;;;;4989817;28;20022;-65
2021/12/10 09:43:38;;;;;;;14.35;2.65;;;;;;;;;;4990521;28;20084;-65
2021/12/10 09:46:05;;;;;;;18.38;3.05;;;;;;;;;;4991466;28;20038;-65
2021/12/10 09:48:31;;;;;;;17.27;2.40;;;;;;;;;;4991651;28;20037;-65
2021/12/10 09:50:59;;;;;;;23.42;3.33;;;;;;;;;;4992011;28;20508;-65
2021/12/10 09:53:27;;;;;;;11.45;2.60;;;;;;;;;;4990862;28;20034;-65
2021/12/10 09:55:54;;;;;;;13.13;2.72;;;;;;;;;;4991530;28;20026;-65
2021/12/10 09:58:20;;;;;;;10.73;2.42;;;;;;;;;;4991464;28;20042;-65
2021/12/10 10:00:52;;;;;;;12.38;2.30;;;;;;;;;;4992290;28;20101;-65
2021/12/10 10:03:21;;;;;;;11.50;3.08;;;;;;;;;;4990680;28;20549;-65
2021/12/10 10:05:47;;;;;;;11.25;2.40;;;;;;;;;;4992477;28;20037;-65
2021/12/10 10:08:15;;;;;;;17.00;3.33;;;;;;;;;;4990008;28;20467;-65
2021/12/10 10:10:44;;;;;;;15.50;2.90;;;;;;;;;;4992148;28;20035;-65
2021/12/10 10:13:11;;;;;;;16.73;2.20;;;;;;;;;;4991299;28;20505;-65
2021/12/10 10:15:38;;;;;;;13.88;2.83;;;;;;;;;;4990855;28;20521;-65
2021/12/10 10:18:05;;;;;;;15.85;3.28;;;;;;;;;;4990590;28;20034;-65
2021/12/10 10:20:33;;;;;;;14.73;1.95;;;;;;;;;;5000116;28;20121;-65
2021/12/10 10:22:59;;;;;;;12.85;2.17;;;;;;;;;;4994555;28;20033;-65
2021/12/10 10:25:28;;;;;;;14.40;2.80;;;;;;;;;;4990971;28;20097;-65
2021/12/10 10:27:56;;;;;;;21.73;2.30;;;;;;;;;;4991460;28;20034;-65
2021/12/10 10:30:28;;;;;;;17.65;2.38;;;;;;;;;;4991709;28;20482;-65
2021/12/10 10:32:56;;;;;;;8.98;1.70;;;;;;;;;;4990534;28;20367;-65
2021/12/10 10:35:26;;;;;;;14.93;2.55;;;;;;;;;;4991403;28;20129;-65
2021/12/10 10:37:54;;;;;;;14.35;2.65;;;;;;;;;;4991116;28;20061;-66
2021/12/10 10:40:22;;;;;;;16.52;2.60;;;;;;;;;;4991489;28;20093;-66
2021/12/10 10:42:49;;;;;;;9.82;2.75;;;;;;;;;;4991511;28;20598;-66
2021/12/10 10:45:20;;;;;;;21.77;2.90;;;;;;;;;;4991508;28;20061;-65
2021/12/10 10:47:46;;;;;;;12.18;2.67;;;;;;;;;;5006521;28;20452;-65
2021/12/10 10:50:14;;;;;;;9.60;2.42;;;;;;;;;;4991344;28;20045;-65
2021/12/10 10:52:43;;;;;;;21.55;3.03;;;;;;;;;;4985834;28;20487;-65
2021/12/10 10:55:12;;;;;;;17.15;2.50;;;;;;;;;;4991057;28;20034;-65
2021/12/10 10:57:50;;;;;;;21.52;2.40;;;;;;;;;;4990648;28;20042;-65
2021/12/10 11:00:29;;;;;;;24.00;3.13;;;;;;;;;;4986184;28;20033;-65
2021/12/10 11:02:59;;;;;;;20.17;2.40;;;;;;;;;;4988616;28;20031;-65
2021/12/10 11:05:25;;;;;;;21.20;2.42;;;;;;;;;;4991433;28;20022;-65
2021/12/10 11:07:53;;;;;;;21.67;2.85;;;;;;;;;;4991435;28;20026;-65
2021/12/10 11:10:28;;;;;;;13.95;2.20;;;;;;;;;;4990969;28;20014;-65
2021/12/10 11:12:54;;;;;;;18.27;2.95;;;;;;;;;;4990461;28;20019;-66
2021/12/10 11:15:20;;;;;;;24.70;3.45;;;;;;;;;;4986562;28;20027;-74
2021/12/10 11:17:55;;;;;;;11.20;2.00;;;;;;;;;;4992430;28;20062;-72
2021/12/10 11:20:25;;;;;;;16.27;2.50;;;;;;;;;;4992803;28;20030;-78
2021/12/10 11:23:01;;;;;;;11.48;2.95;;;;;;;;;;4993817;28;20497;-75
2021/12/10 11:25:31;;;;;;;16.02;2.55;;;;;;;;;;4993240;28;20378;-72
2021/12/10 11:28:06;;;;;;;20.85;3.10;;;;;;;;;;4993560;28;20030;-73
2021/12/10 11:30:32;;;;;;;18.42;3.40;;;;;;;;;;4990778;28;20066;-66
2021/12/10 11:33:01;;;;;;;24.05;3.10;;;;;;;;;;4987317;28;20018;-66
2021/12/10 11:35:30;;;;;;;13.75;2.63;;;;;;;;;;4988014;28;20093;-67
2021/12/10 11:38:01;;;;;;;15.40;3.30;;;;;;;;;;4990240;28;20121;-67
2021/12/10 11:40:35;;;;;;;10.32;2.42;;;;;;;;;;5005568;28;20049;-67
2021/12/10 11:46:05;;;;;;;8.05;1.30;;;;;;;;;;4989913;28;20057;-66
2021/12/10 11:48:42;;;;;;;10.27;1.50;;;;;;;;;;4992896;28;20037;-66
2021/12/10 11:51:11;;;;;;;5.95;1.63;;;;;;;;;;4991665;28;20494;-66
2021/12/10 11:53:48;;;;;;;5.85;1.45;;;;;;;;;;4992823;28;20034;-66
2021/12/10 11:56:28;;;;;;;11.00;1.48;;;;;;;;;;4993460;28;20026;-66
2021/12/10 11:59:00;;;;;;;10.65;1.67;;;;;;;;;;4990545;28;20383;-66
2021/12/10 12:01:26;;;;;;;12.60;1.33;;;;;;;;;;4990376;28;20120;-66
2021/12/10 12:03:53;;;;;;;9.18;1.95;;;;;;;;;;4992256;28;20027;-66
2021/12/10 12:06:20;;;;;;;7.00;1.90;;;;;;;;;;4992451;28;20113;-66
2021/12/10 12:08:46;;;;;;;19.10;2.13;;;;;;;;;;4994442;28;20030;-66
2021/12/10 12:11:12;;;;;;;10.65;2.15;;;;;;;;;;4993005;28;20109;-66
2021/12/10 12:13:51;;;;;;;25.00;3.42;;;;;;;;;;4989757;28;20019;-66
2021/12/10 12:16:18;;;;;;;12.07;2.30;;;;;;;;;;4989623;28;20432;-66
2021/12/10 12:18:46;;;;;;;18.67;2.88;;;;;;;;;;4991868;28;20030;-66
2021/12/10 12:24:57;;;;;;;;;;;;;;;;;;4990022;28;20109;-66
2021/12/10 12:26:45;;;;;;;10.77;2.55;;;;;;;;;;4988098;28;19910;-66
2021/12/10 12:29:12;;;;;;;14.40;2.80;;;;;;;;;;4991487;28;20518;-66
2021/12/10 12:31:40;;;;;;;13.10;2.78;;;;;;;;;;4995621;28;20173;-66
2021/12/10 12:34:17;;;;;;;11.90;2.30;;;;;;;;;;4992352;28;20049;-66
2021/12/10 12:36:52;;;;;;;19.23;2.63;;;;;;;;;;4992590;28;20042;-66
2021/12/10 12:39:31;;;;;;;14.55;2.38;;;;;;;;;;4987904;28;20113;-66
2021/12/10 12:41:57;;;;;;;13.02;2.80;;;;;;;;;;4991711;28;20048;-66
2021/12/10 12:44:23;;;;;;;10.57;2.13;;;;;;;;;;4992082;28;20080;-66
2021/12/10 12:46:57;;;;;;;11.07;2.40;;;;;;;;;;4990541;28;20386;-66
2021/12/10 12:49:24;;;;;;;21.25;2.83;;;;;;;;;;4990974;28;20581;-66
2021/12/10 12:52:07;;;;;;;12.70;2.30;;;;;;;;;;4990775;28;20023;-66
2021/12/10 12:54:35;;;;;;;11.60;2.70;;;;;;;;;;4990423;28;20023;-66
2021/12/10 12:57:03;;;;;;;14.23;3.00;;;;;;;;;;4993141;28;20391;-66
2021/12/10 12:59:29;;;;;;;15.85;2.35;;;;;;;;;;4993695;28;20058;-66
2021/12/10 13:01:57;;;;;;;13.65;2.63;;;;;;;;;;4992466;28;20513;-66
2021/12/10 13:04:33;;;;;;;13.60;2.58;;;;;;;;;;4992610;28;20118;-66
2021/12/10 13:07:02;;;;;;;6.70;2.20;;;;;;;;;;4990103;28;20109;-66
2021/12/10 13:09:37;;;;;;;19.92;2.95;;;;;;;;;;4989317;28;20129;-66
2021/12/10 13:12:09;;;;;;;8.30;1.75;;;;;;;;;;4990033;28;20088;-66
2021/12/10 13:14:58;;;;;;;7.05;1.33;;;;;;;;;;4989614;28;20034;-66
2021/12/10 13:17:32;;;;;;;15.13;2.35;;;;;;;;;;4991828;28;20030;-66
2021/12/10 13:20:00;;;;;;;10.52;1.73;;;;;;;;;;4990797;28;20408;-66
2021/12/10 13:22:27;;;;;;;11.98;2.45;;;;;;;;;;4991879;28;20104;-66
2021/12/10 13:24:55;;;;;;;16.10;2.95;;;;;;;;;;4991875;28;20129;-66
2021/12/10 13:27:22;;;;;;;6.72;1.65;;;;;;;;;;4991986;28;20121;-66
2021/12/10 13:29:48;;;;;;;9.88;2.08;;;;;;;;;;4991963;28;20121;-66
2021/12/10 13:32:14;;;;;;;23.45;3.72;;;;;;;;;;4992389;28;20113;-66
2021/12/10 13:34:41;;;;;;;18.58;2.30;;;;;;;;;;4990948;28;20101;-66
2021/12/10 13:37:08;;;;;;;12.00;2.13;;;;;;;;;;4990750;28;20041;-66
2021/12/10 13:39:35;;;;;;;16.50;2.53;;;;;;;;;;4985989;28;20060;-66
2021/12/10 13:42:01;;;;;;;22.40;2.75;;;;;;;;;;4991853;28;20124;-66
2021/12/10 13:46:56;;;;;;;13.77;2.60;;;;;;;;;;4992287;28;20038;-66
2021/12/10 13:49:22;;;;;;;18.15;2.10;;;;;;;;;;4990502;28;20037;-66
2021/12/10 13:51:51;;;;;;;9.32;2.10;;;;;;;;;;4989680;28;20509;-66
2021/12/10 13:54:23;;;;;;;12.98;2.78;;;;;;;;;;4988853;28;20024;-66
2021/12/10 13:56:51;;;;;;;15.63;1.80;;;;;;;;;;4993309;28;20034;-66
2021/12/10 13:59:20;;;;;;;9.35;2.00;;;;;;;;;;4990800;28;20483;-66
2021/12/10 14:01:48;;;;;;;11.93;1.60;;;;;;;;;;4991504;28;20038;-66
2021/12/10 14:04:16;;;;;;;2.47;1.10;;;;;;;;;;4991421;28;20487;-66
2021/12/10 14:06:42;;;;;;;4.88;1.35;;;;;;;;;;4991587;28;20046;-66
2021/12/10 14:09:12;;;;;;;8.27;1.27;;;;;;;;;;4990569;28;20042;-66
2021/12/10 14:11:55;;;;;;;6.85;1.40;;;;;;;;;;4989926;28;20073;-66
2021/12/10 14:14:28;;;;;;;13.40;1.58;;;;;;;;;;4986350;28;20042;-66
2021/12/10 14:17:00;;;;;;;22.80;2.63;;;;;;;;;;4991105;28;20054;-66
2021/12/10 14:19:30;;;;;;;9.52;1.40;;;;;;;;;;4990503;28;20498;-66
2021/12/10 14:21:56;;;;;;;14.10;2.08;;;;;;;;;;4988912;28;20486;-66
2021/12/10 14:24:43;;;;;;;19.08;3.10;;;;;;;;;;4991361;28;20031;-66
2021/12/10 14:27:30;;;;;;;17.95;2.45;;;;;;;;;;4990306;28;20058;-66
2021/12/10 14:30:17;;;;;;;14.13;2.55;;;;;;;;;;4989985;28;20437;-66
2021/12/10 14:32:44;;;;;;;22.15;4.05;;;;;;;;;;4990946;28;20053;-66
2021/12/10 14:35:19;;;;;;;19.27;2.75;;;;;;;;;;4991399;28;20043;-66
2021/12/10 14:37:55;;;;;;;18.48;3.88;;;;;;;;;;4990560;28;20504;-66
2021/12/10 14:40:23;;;;;;;18.10;3.40;;;;;;;;;;4977967;28;20501;-66
2021/12/10 14:43:07;;;;;;;13.80;2.88;;;;;;;;;;4990603;28;20374;-66
2021/12/10 14:45:34;;;;;;;17.67;4.63;;;;;;;;;;4991836;28;20097;-66
2021/12/10 14:48:07;;;;;;;15.50;2.85;;;;;;;;;;4991479;28;20034;-66
2021/12/10 14:50:35;;;;;;;17.75;2.30;;;;;;;;;;4990672;28;20042;-66
2021/12/10 14:53:01;;;;;;;11.75;2.80;;;;;;;;;;4993565;28;20018;-66
2021/12/10 14:55:29;;;;;;;15.50;2.30;;;;;;;;;;4992918;28;20023;-66
2021/12/10 14:57:58;;;;;;;15.75;2.30;;;;;;;;;;4991408;28;20027;-66
2021/12/10 15:00:27;;;;;;;12.65;2.58;;;;;;;;;;4991626;28;20065;-66
2021/12/10 15:03:02;;;;;;;17.83;2.80;;;;;;;;;;4990294;28;20029;-66